sensor_id;sensor_type;location;lat;lon;timestamp;temperature;humidity
39695;DHT22;25367;-35.352;149.036;2022-07-15T00:02:02;22.10;36.50
39695;DHT22;25367;-35.352;149.036;2022-07-15T00:04:32;22.10;35.90
39695;DHT22;25367;-35.352;149.036;2022-07-15T00:07:03;22.00;35.90
39695;DHT22;25367;-35.352;149.036;2022-07-15T00:09:36;22.00;35.90
39695;DHT22;25367;-35.352;149.036;2022-07-15T00:12:06;22.10;35.80
39695;DHT22;25367;-35.352;149.036;2022-07-15T00:14:36;22.10;35.70
39695;DHT22;25367;-35.352;149.036;2022-07-15T00:17:06;22.10;35.90
39695;DHT22;25367;-35.352;149.036;2022-07-15T00:19:37;22.20;36.00
39695;DHT22;25367;-35.352;149.036;2022-07-15T00:22:07;22.20;36.20
39695;DHT22;25367;-35.352;149.036;2022-07-15T00:24:39;22.20;36.30
39695;DHT22;25367;-35.352;149.036;2022-07-15T00:27:09;22.30;36.40
39695;DHT22;25367;-35.352;149.036;2022-07-15T00:29:39;22.40;36.50
39695;DHT22;25367;-35.352;149.036;2022-07-15T00:32:09;22.50;36.40
39695;DHT22;25367;-35.352;149.036;2022-07-15T00:34:39;22.50;36.70
39695;DHT22;25367;-35.352;149.036;2022-07-15T00:37:08;22.50;36.60
39695;DHT22;25367;-35.352;149.036;2022-07-15T00:39:43;22.60;36.90
39695;DHT22;25367;-35.352;149.036;2022-07-15T00:42:14;22.50;36.60
39695;DHT22;25367;-35.352;149.036;2022-07-15T00:44:44;22.50;36.60
39695;DHT22;25367;-35.352;149.036;2022-07-15T00:47:14;22.60;36.70
39695;DHT22;25367;-35.352;149.036;2022-07-15T00:49:46;22.50;36.70
39695;DHT22;25367;-35.352;149.036;2022-07-15T00:52:18;22.50;36.70
39695;DHT22;25367;-35.352;149.036;2022-07-15T00:54:52;22.60;36.80
39695;DHT22;25367;-35.352;149.036;2022-07-15T00:57:21;22.60;36.80
39695;DHT22;25367;-35.352;149.036;2022-07-15T00:59:53;22.60;36.80
39695;DHT22;25367;-35.352;149.036;2022-07-15T01:02:24;22.70;36.90
39695;DHT22;25367;-35.352;149.036;2022-07-15T01:04:54;22.60;36.80
39695;DHT22;25367;-35.352;149.036;2022-07-15T01:07:24;22.60;36.70
39695;DHT22;25367;-35.352;149.036;2022-07-15T01:09:56;22.70;36.70
39695;DHT22;25367;-35.352;149.036;2022-07-15T01:12:26;22.70;36.60
39695;DHT22;25367;-35.352;149.036;2022-07-15T01:14:57;22.80;36.60
39695;DHT22;25367;-35.352;149.036;2022-07-15T01:17:27;22.90;36.40
39695;DHT22;25367;-35.352;149.036;2022-07-15T01:19:57;22.90;36.30
39695;DHT22;25367;-35.352;149.036;2022-07-15T01:22:31;22.90;36.40
39695;DHT22;25367;-35.352;149.036;2022-07-15T01:25:00;22.90;36.40
39695;DHT22;25367;-35.352;149.036;2022-07-15T01:27:31;22.90;36.50
39695;DHT22;25367;-35.352;149.036;2022-07-15T01:30:02;22.80;36.50
39695;DHT22;25367;-35.352;149.036;2022-07-15T01:32:33;22.80;36.50
39695;DHT22;25367;-35.352;149.036;2022-07-15T01:35:02;22.80;36.90
39695;DHT22;25367;-35.352;149.036;2022-07-15T01:37:36;22.80;37.00
39695;DHT22;25367;-35.352;149.036;2022-07-15T01:40:07;22.90;36.90
39695;DHT22;25367;-35.352;149.036;2022-07-15T01:42:38;22.90;37.00
39695;DHT22;25367;-35.352;149.036;2022-07-15T01:45:19;23.00;36.80
39695;DHT22;25367;-35.352;149.036;2022-07-15T01:48:06;23.00;36.90
39695;DHT22;25367;-35.352;149.036;2022-07-15T01:51:03;23.00;36.80
39695;DHT22;25367;-35.352;149.036;2022-07-15T01:53:35;23.10;36.70
39695;DHT22;25367;-35.352;149.036;2022-07-15T01:56:05;23.00;36.80
39695;DHT22;25367;-35.352;149.036;2022-07-15T01:58:36;23.10;36.80
39695;DHT22;25367;-35.352;149.036;2022-07-15T02:01:06;23.10;36.80
39695;DHT22;25367;-35.352;149.036;2022-07-15T02:03:35;23.10;37.00
39695;DHT22;25367;-35.352;149.036;2022-07-15T02:06:08;23.00;37.00
39695;DHT22;25367;-35.352;149.036;2022-07-15T02:08:45;23.00;37.00
39695;DHT22;25367;-35.352;149.036;2022-07-15T02:11:18;23.20;37.00
39695;DHT22;25367;-35.352;149.036;2022-07-15T02:13:51;23.30;36.80
39695;DHT22;25367;-35.352;149.036;2022-07-15T02:16:24;23.40;36.70
39695;DHT22;25367;-35.352;149.036;2022-07-15T02:18:54;23.60;36.70
39695;DHT22;25367;-35.352;149.036;2022-07-15T02:21:24;23.60;36.70
39695;DHT22;25367;-35.352;149.036;2022-07-15T02:23:57;23.60;36.70
39695;DHT22;25367;-35.352;149.036;2022-07-15T02:26:26;23.60;36.90
39695;DHT22;25367;-35.352;149.036;2022-07-15T02:28:59;23.70;37.70
39695;DHT22;25367;-35.352;149.036;2022-07-15T02:31:30;23.70;36.90
39695;DHT22;25367;-35.352;149.036;2022-07-15T02:34:00;23.80;36.80
39695;DHT22;25367;-35.352;149.036;2022-07-15T02:36:30;24.00;36.70
39695;DHT22;25367;-35.352;149.036;2022-07-15T02:39:02;24.00;36.60
39695;DHT22;25367;-35.352;149.036;2022-07-15T02:41:34;24.00;36.60
39695;DHT22;25367;-35.352;149.036;2022-07-15T02:44:09;24.10;36.50
39695;DHT22;25367;-35.352;149.036;2022-07-15T02:46:41;24.20;36.50
39695;DHT22;25367;-35.352;149.036;2022-07-15T02:49:12;24.20;36.30
39695;DHT22;25367;-35.352;149.036;2022-07-15T02:51:41;24.20;36.30
39695;DHT22;25367;-35.352;149.036;2022-07-15T02:54:13;24.30;36.20
39695;DHT22;25367;-35.352;149.036;2022-07-15T02:56:43;24.40;36.20
39695;DHT22;25367;-35.352;149.036;2022-07-15T02:59:13;24.30;36.10
39695;DHT22;25367;-35.352;149.036;2022-07-15T03:01:42;24.40;36.20
39695;DHT22;25367;-35.352;149.036;2022-07-15T03:04:14;24.40;36.20
39695;DHT22;25367;-35.352;149.036;2022-07-15T03:06:44;24.40;36.20
39695;DHT22;25367;-35.352;149.036;2022-07-15T03:09:18;24.30;36.20
39695;DHT22;25367;-35.352;149.036;2022-07-15T03:11:47;24.50;34.70
39695;DHT22;25367;-35.352;149.036;2022-07-15T03:14:16;24.30;34.70
39695;DHT22;25367;-35.352;149.036;2022-07-15T03:16:46;24.20;35.30
39695;DHT22;25367;-35.352;149.036;2022-07-15T03:19:15;24.10;35.70
39695;DHT22;25367;-35.352;149.036;2022-07-15T03:21:48;24.00;35.90
39695;DHT22;25367;-35.352;149.036;2022-07-15T03:24:22;24.00;35.90
39695;DHT22;25367;-35.352;149.036;2022-07-15T03:26:52;23.90;36.10
39695;DHT22;25367;-35.352;149.036;2022-07-15T03:29:22;23.80;36.20
39695;DHT22;25367;-35.352;149.036;2022-07-15T03:31:54;23.70;36.40
39695;DHT22;25367;-35.352;149.036;2022-07-15T03:34:26;23.60;36.40
39695;DHT22;25367;-35.352;149.036;2022-07-15T03:36:55;23.60;36.60
39695;DHT22;25367;-35.352;149.036;2022-07-15T03:39:27;23.60;36.50
39695;DHT22;25367;-35.352;149.036;2022-07-15T03:41:56;23.60;36.60
39695;DHT22;25367;-35.352;149.036;2022-07-15T03:44:26;23.50;36.70
39695;DHT22;25367;-35.352;149.036;2022-07-15T03:46:55;23.50;36.60
39695;DHT22;25367;-35.352;149.036;2022-07-15T03:49:24;23.50;36.60
39695;DHT22;25367;-35.352;149.036;2022-07-15T03:51:54;23.40;36.70
39695;DHT22;25367;-35.352;149.036;2022-07-15T03:54:26;23.50;36.80
39695;DHT22;25367;-35.352;149.036;2022-07-15T03:56:55;23.50;36.70
39695;DHT22;25367;-35.352;149.036;2022-07-15T03:59:26;23.60;36.50
39695;DHT22;25367;-35.352;149.036;2022-07-15T04:01:55;23.50;36.60
39695;DHT22;25367;-35.352;149.036;2022-07-15T04:04:24;23.50;36.70
39695;DHT22;25367;-35.352;149.036;2022-07-15T04:06:54;23.50;37.10
39695;DHT22;25367;-35.352;149.036;2022-07-15T04:09:27;23.60;36.70
39695;DHT22;25367;-35.352;149.036;2022-07-15T04:11:57;23.80;36.50
39695;DHT22;25367;-35.352;149.036;2022-07-15T04:14:26;23.90;36.30
39695;DHT22;25367;-35.352;149.036;2022-07-15T04:16:56;24.10;36.20
39695;DHT22;25367;-35.352;149.036;2022-07-15T04:19:36;24.10;36.00
39695;DHT22;25367;-35.352;149.036;2022-07-15T04:22:07;24.20;36.00
39695;DHT22;25367;-35.352;149.036;2022-07-15T04:24:52;24.30;35.90
39695;DHT22;25367;-35.352;149.036;2022-07-15T04:27:21;24.20;35.90
39695;DHT22;25367;-35.352;149.036;2022-07-15T04:29:50;24.20;35.90
39695;DHT22;25367;-35.352;149.036;2022-07-15T04:32:20;24.20;36.00
39695;DHT22;25367;-35.352;149.036;2022-07-15T04:34:54;24.10;36.10
39695;DHT22;25367;-35.352;149.036;2022-07-15T04:37:24;24.10;36.10
39695;DHT22;25367;-35.352;149.036;2022-07-15T04:40:01;24.20;36.10
39695;DHT22;25367;-35.352;149.036;2022-07-15T04:42:36;24.20;36.10
39695;DHT22;25367;-35.352;149.036;2022-07-15T04:45:10;24.20;35.90
39695;DHT22;25367;-35.352;149.036;2022-07-15T04:47:41;24.20;36.00
39695;DHT22;25367;-35.352;149.036;2022-07-15T04:50:14;24.20;36.00
39695;DHT22;25367;-35.352;149.036;2022-07-15T04:52:44;24.30;35.90
39695;DHT22;25367;-35.352;149.036;2022-07-15T04:55:16;24.30;35.80
39695;DHT22;25367;-35.352;149.036;2022-07-15T04:57:45;24.30;35.80
39695;DHT22;25367;-35.352;149.036;2022-07-15T05:00:15;24.30;35.80
39695;DHT22;25367;-35.352;149.036;2022-07-15T05:02:44;24.30;35.80
39695;DHT22;25367;-35.352;149.036;2022-07-15T05:05:15;24.30;35.80
39695;DHT22;25367;-35.352;149.036;2022-07-15T05:07:45;24.40;35.80
39695;DHT22;25367;-35.352;149.036;2022-07-15T05:10:17;24.40;35.80
39695;DHT22;25367;-35.352;149.036;2022-07-15T05:12:57;24.40;35.80
39695;DHT22;25367;-35.352;149.036;2022-07-15T05:15:27;24.40;35.70
39695;DHT22;25367;-35.352;149.036;2022-07-15T05:17:57;24.50;35.70
39695;DHT22;25367;-35.352;149.036;2022-07-15T05:20:26;24.50;35.60
39695;DHT22;25367;-35.352;149.036;2022-07-15T05:22:56;24.30;35.60
39695;DHT22;25367;-35.352;149.036;2022-07-15T05:25:29;24.30;35.70
39695;DHT22;25367;-35.352;149.036;2022-07-15T05:27:59;24.30;35.70
39695;DHT22;25367;-35.352;149.036;2022-07-15T05:30:29;24.30;35.80
39695;DHT22;25367;-35.352;149.036;2022-07-15T05:33:03;24.30;35.70
39695;DHT22;25367;-35.352;149.036;2022-07-15T05:35:34;24.30;35.70
39695;DHT22;25367;-35.352;149.036;2022-07-15T05:38:05;24.30;35.70
39695;DHT22;25367;-35.352;149.036;2022-07-15T05:40:38;24.30;35.70
39695;DHT22;25367;-35.352;149.036;2022-07-15T05:43:08;24.30;35.70
39695;DHT22;25367;-35.352;149.036;2022-07-15T05:45:41;24.30;35.80
39695;DHT22;25367;-35.352;149.036;2022-07-15T05:48:10;24.40;35.70
39695;DHT22;25367;-35.352;149.036;2022-07-15T05:50:45;24.40;35.60
39695;DHT22;25367;-35.352;149.036;2022-07-15T05:53:16;24.40;35.60
39695;DHT22;25367;-35.352;149.036;2022-07-15T05:55:48;24.30;35.70
39695;DHT22;25367;-35.352;149.036;2022-07-15T05:58:21;24.30;35.70
39695;DHT22;25367;-35.352;149.036;2022-07-15T06:00:52;24.30;35.80
39695;DHT22;25367;-35.352;149.036;2022-07-15T06:03:22;24.30;35.70
39695;DHT22;25367;-35.352;149.036;2022-07-15T06:05:52;24.30;35.70
39695;DHT22;25367;-35.352;149.036;2022-07-15T06:08:21;24.10;35.90
39695;DHT22;25367;-35.352;149.036;2022-07-15T06:10:53;24.20;35.90
39695;DHT22;25367;-35.352;149.036;2022-07-15T06:13:24;24.30;35.80
39695;DHT22;25367;-35.352;149.036;2022-07-15T06:15:54;24.30;35.80
39695;DHT22;25367;-35.352;149.036;2022-07-15T06:18:26;24.30;35.80
39695;DHT22;25367;-35.352;149.036;2022-07-15T06:20:57;24.30;35.70
39695;DHT22;25367;-35.352;149.036;2022-07-15T06:23:28;24.30;35.60
39695;DHT22;25367;-35.352;149.036;2022-07-15T06:26:01;24.30;35.60
39695;DHT22;25367;-35.352;149.036;2022-07-15T06:28:30;24.30;35.70
39695;DHT22;25367;-35.352;149.036;2022-07-15T06:30:59;24.20;35.80
39695;DHT22;25367;-35.352;149.036;2022-07-15T06:33:29;24.20;35.70
39695;DHT22;25367;-35.352;149.036;2022-07-15T06:36:00;24.20;35.80
39695;DHT22;25367;-35.352;149.036;2022-07-15T06:38:31;24.20;35.80
39695;DHT22;25367;-35.352;149.036;2022-07-15T06:41:06;24.20;35.80
39695;DHT22;25367;-35.352;149.036;2022-07-15T06:43:35;24.10;36.00
39695;DHT22;25367;-35.352;149.036;2022-07-15T06:46:25;24.20;35.80
39695;DHT22;25367;-35.352;149.036;2022-07-15T06:48:54;24.20;35.60
39695;DHT22;25367;-35.352;149.036;2022-07-15T06:51:24;24.20;35.60
39695;DHT22;25367;-35.352;149.036;2022-07-15T06:53:54;24.20;35.70
39695;DHT22;25367;-35.352;149.036;2022-07-15T06:56:31;24.20;35.70
39695;DHT22;25367;-35.352;149.036;2022-07-15T06:59:03;24.20;35.70
39695;DHT22;25367;-35.352;149.036;2022-07-15T07:01:32;24.00;35.70
39695;DHT22;25367;-35.352;149.036;2022-07-15T07:04:02;24.00;35.80
39695;DHT22;25367;-35.352;149.036;2022-07-15T07:06:31;24.10;35.70
39695;DHT22;25367;-35.352;149.036;2022-07-15T07:09:01;24.10;35.70
39695;DHT22;25367;-35.352;149.036;2022-07-15T07:11:35;24.10;35.70
39695;DHT22;25367;-35.352;149.036;2022-07-15T07:14:04;24.20;35.70
39695;DHT22;25367;-35.352;149.036;2022-07-15T07:16:34;24.20;35.80
39695;DHT22;25367;-35.352;149.036;2022-07-15T07:19:03;24.20;35.70
39695;DHT22;25367;-35.352;149.036;2022-07-15T07:21:33;24.20;35.70
39695;DHT22;25367;-35.352;149.036;2022-07-15T07:24:02;24.00;35.80
39695;DHT22;25367;-35.352;149.036;2022-07-15T07:26:34;24.00;35.80
39695;DHT22;25367;-35.352;149.036;2022-07-15T07:29:03;24.10;35.90
39695;DHT22;25367;-35.352;149.036;2022-07-15T07:31:32;24.00;35.80
39695;DHT22;25367;-35.352;149.036;2022-07-15T07:34:02;24.00;35.90
39695;DHT22;25367;-35.352;149.036;2022-07-15T07:36:31;24.00;35.90
39695;DHT22;25367;-35.352;149.036;2022-07-15T07:39:01;24.00;35.80
39695;DHT22;25367;-35.352;149.036;2022-07-15T07:41:32;23.90;36.10
39695;DHT22;25367;-35.352;149.036;2022-07-15T07:44:01;23.90;36.40
39695;DHT22;25367;-35.352;149.036;2022-07-15T07:46:31;23.90;36.50
39695;DHT22;25367;-35.352;149.036;2022-07-15T07:49:00;23.90;36.50
39695;DHT22;25367;-35.352;149.036;2022-07-15T07:51:29;23.90;36.50
39695;DHT22;25367;-35.352;149.036;2022-07-15T07:53:59;23.90;37.10
39695;DHT22;25367;-35.352;149.036;2022-07-15T07:56:28;24.00;37.10
39695;DHT22;25367;-35.352;149.036;2022-07-15T07:59:01;24.10;37.20
39695;DHT22;25367;-35.352;149.036;2022-07-15T08:01:31;24.00;37.60
39695;DHT22;25367;-35.352;149.036;2022-07-15T08:04:00;23.70;38.50
39695;DHT22;25367;-35.352;149.036;2022-07-15T08:06:29;23.80;38.20
39695;DHT22;25367;-35.352;149.036;2022-07-15T08:08:59;23.90;38.20
39695;DHT22;25367;-35.352;149.036;2022-07-15T08:11:28;24.00;37.90
39695;DHT22;25367;-35.352;149.036;2022-07-15T08:14:00;24.40;37.10
39695;DHT22;25367;-35.352;149.036;2022-07-15T08:16:30;24.50;36.70
39695;DHT22;25367;-35.352;149.036;2022-07-15T08:19:01;24.60;36.40
39695;DHT22;25367;-35.352;149.036;2022-07-15T08:21:30;24.70;36.10
39695;DHT22;25367;-35.352;149.036;2022-07-15T08:24:00;24.70;36.10
39695;DHT22;25367;-35.352;149.036;2022-07-15T08:26:29;24.70;36.00
39695;DHT22;25367;-35.352;149.036;2022-07-15T08:29:00;24.60;36.00
39695;DHT22;25367;-35.352;149.036;2022-07-15T08:31:30;24.70;36.00
39695;DHT22;25367;-35.352;149.036;2022-07-15T08:33:59;24.60;35.90
39695;DHT22;25367;-35.352;149.036;2022-07-15T08:36:29;24.60;36.00
39695;DHT22;25367;-35.352;149.036;2022-07-15T08:38:58;24.60;36.00
39695;DHT22;25367;-35.352;149.036;2022-07-15T08:41:28;24.60;36.00
39695;DHT22;25367;-35.352;149.036;2022-07-15T08:43:59;24.60;35.90
39695;DHT22;25367;-35.352;149.036;2022-07-15T08:46:29;24.60;36.20
39695;DHT22;25367;-35.352;149.036;2022-07-15T08:49:05;24.50;36.10
39695;DHT22;25367;-35.352;149.036;2022-07-15T08:51:36;24.60;36.10
39695;DHT22;25367;-35.352;149.036;2022-07-15T08:54:07;24.50;36.20
39695;DHT22;25367;-35.352;149.036;2022-07-15T08:56:37;24.40;36.20
39695;DHT22;25367;-35.352;149.036;2022-07-15T08:59:10;24.40;36.30
39695;DHT22;25367;-35.352;149.036;2022-07-15T09:01:43;24.30;36.30
39695;DHT22;25367;-35.352;149.036;2022-07-15T09:04:13;24.30;36.30
39695;DHT22;25367;-35.352;149.036;2022-07-15T09:06:44;24.20;36.20
39695;DHT22;25367;-35.352;149.036;2022-07-15T09:09:31;24.30;36.30
39695;DHT22;25367;-35.352;149.036;2022-07-15T09:12:03;24.30;36.20
39695;DHT22;25367;-35.352;149.036;2022-07-15T09:14:37;24.20;36.20
39695;DHT22;25367;-35.352;149.036;2022-07-15T09:17:20;24.30;36.20
39695;DHT22;25367;-35.352;149.036;2022-07-15T09:20:14;24.30;36.10
39695;DHT22;25367;-35.352;149.036;2022-07-15T09:22:52;24.30;36.10
39695;DHT22;25367;-35.352;149.036;2022-07-15T09:25:23;24.30;36.00
39695;DHT22;25367;-35.352;149.036;2022-07-15T09:27:53;24.30;35.90
39695;DHT22;25367;-35.352;149.036;2022-07-15T09:30:27;24.30;35.90
39695;DHT22;25367;-35.352;149.036;2022-07-15T09:32:59;24.30;35.80
39695;DHT22;25367;-35.352;149.036;2022-07-15T09:35:30;24.30;35.90
39695;DHT22;25367;-35.352;149.036;2022-07-15T09:38:01;24.40;35.80
39695;DHT22;25367;-35.352;149.036;2022-07-15T09:40:31;24.30;35.80
39695;DHT22;25367;-35.352;149.036;2022-07-15T09:43:06;24.20;35.80
39695;DHT22;25367;-35.352;149.036;2022-07-15T09:45:58;24.30;35.80
39695;DHT22;25367;-35.352;149.036;2022-07-15T09:48:29;24.30;35.80
39695;DHT22;25367;-35.352;149.036;2022-07-15T09:51:02;24.20;36.10
39695;DHT22;25367;-35.352;149.036;2022-07-15T09:53:33;24.20;36.00
39695;DHT22;25367;-35.352;149.036;2022-07-15T09:56:06;24.20;36.10
39695;DHT22;25367;-35.352;149.036;2022-07-15T09:58:39;24.20;36.00
39695;DHT22;25367;-35.352;149.036;2022-07-15T10:01:13;24.10;36.00
39695;DHT22;25367;-35.352;149.036;2022-07-15T10:03:44;24.10;36.10
39695;DHT22;25367;-35.352;149.036;2022-07-15T10:06:15;24.00;36.10
39695;DHT22;25367;-35.352;149.036;2022-07-15T10:08:50;24.00;36.60
39695;DHT22;25367;-35.352;149.036;2022-07-15T10:11:21;24.10;36.30
39695;DHT22;25367;-35.352;149.036;2022-07-15T10:17:32;24.10;35.80
39695;DHT22;25367;-35.352;149.036;2022-07-15T10:23:03;24.10;36.30
39695;DHT22;25367;-35.352;149.036;2022-07-15T10:25:55;24.10;35.50
39695;DHT22;25367;-35.352;149.036;2022-07-15T10:28:52;24.00;35.60
39695;DHT22;25367;-35.352;149.036;2022-07-15T10:31:24;24.00;35.70
39695;DHT22;25367;-35.352;149.036;2022-07-15T10:34:24;23.90;35.90
39695;DHT22;25367;-35.352;149.036;2022-07-15T10:37:06;23.90;35.80
39695;DHT22;25367;-35.352;149.036;2022-07-15T10:39:56;23.90;35.70
39695;DHT22;25367;-35.352;149.036;2022-07-15T10:42:28;23.90;35.60
39695;DHT22;25367;-35.352;149.036;2022-07-15T10:45:19;23.90;35.60
39695;DHT22;25367;-35.352;149.036;2022-07-15T10:47:49;24.00;35.50
39695;DHT22;25367;-35.352;149.036;2022-07-15T10:50:43;24.00;35.50
39695;DHT22;25367;-35.352;149.036;2022-07-15T10:53:16;24.00;35.40
39695;DHT22;25367;-35.352;149.036;2022-07-15T10:55:50;24.00;35.40
39695;DHT22;25367;-35.352;149.036;2022-07-15T10:58:23;23.90;35.40
39695;DHT22;25367;-35.352;149.036;2022-07-15T11:00:54;23.90;35.40
39695;DHT22;25367;-35.352;149.036;2022-07-15T11:03:25;23.90;35.40
39695;DHT22;25367;-35.352;149.036;2022-07-15T11:06:09;23.90;35.30
39695;DHT22;25367;-35.352;149.036;2022-07-15T11:08:55;23.90;35.50
39695;DHT22;25367;-35.352;149.036;2022-07-15T11:11:46;23.90;35.40
39695;DHT22;25367;-35.352;149.036;2022-07-15T11:14:43;23.80;35.30
39695;DHT22;25367;-35.352;149.036;2022-07-15T11:17:18;23.80;35.40
39695;DHT22;25367;-35.352;149.036;2022-07-15T11:19:50;23.80;35.40
39695;DHT22;25367;-35.352;149.036;2022-07-15T11:22:27;23.70;35.50
39695;DHT22;25367;-35.352;149.036;2022-07-15T11:24:58;23.70;35.60
39695;DHT22;25367;-35.352;149.036;2022-07-15T11:27:29;23.60;35.50
39695;DHT22;25367;-35.352;149.036;2022-07-15T11:30:02;23.60;35.70
39695;DHT22;25367;-35.352;149.036;2022-07-15T11:32:32;23.60;35.60
39695;DHT22;25367;-35.352;149.036;2022-07-15T11:35:04;23.50;35.60
39695;DHT22;25367;-35.352;149.036;2022-07-15T11:37:38;23.50;35.60
39695;DHT22;25367;-35.352;149.036;2022-07-15T11:40:11;23.50;35.50
39695;DHT22;25367;-35.352;149.036;2022-07-15T11:42:45;23.40;35.60
39695;DHT22;25367;-35.352;149.036;2022-07-15T11:45:30;23.40;35.50
39695;DHT22;25367;-35.352;149.036;2022-07-15T11:48:01;23.40;35.50
39695;DHT22;25367;-35.352;149.036;2022-07-15T11:50:32;23.40;35.50
39695;DHT22;25367;-35.352;149.036;2022-07-15T11:53:12;23.30;35.50
39695;DHT22;25367;-35.352;149.036;2022-07-15T11:55:52;23.30;35.60
39695;DHT22;25367;-35.352;149.036;2022-07-15T11:58:35;23.30;35.60
39695;DHT22;25367;-35.352;149.036;2022-07-15T12:01:09;23.20;35.50
39695;DHT22;25367;-35.352;149.036;2022-07-15T12:03:41;23.20;35.60
39695;DHT22;25367;-35.352;149.036;2022-07-15T12:06:17;23.20;35.60
39695;DHT22;25367;-35.352;149.036;2022-07-15T12:08:52;23.10;35.60
39695;DHT22;25367;-35.352;149.036;2022-07-15T12:11:25;23.10;35.60
39695;DHT22;25367;-35.352;149.036;2022-07-15T12:13:58;23.10;35.70
39695;DHT22;25367;-35.352;149.036;2022-07-15T12:16:34;23.20;35.60
39695;DHT22;25367;-35.352;149.036;2022-07-15T12:19:10;23.10;35.50
39695;DHT22;25367;-35.352;149.036;2022-07-15T12:21:44;23.10;35.50
39695;DHT22;25367;-35.352;149.036;2022-07-15T12:24:19;23.10;35.50
39695;DHT22;25367;-35.352;149.036;2022-07-15T12:27:01;23.10;35.60
39695;DHT22;25367;-35.352;149.036;2022-07-15T12:29:37;22.90;35.60
39695;DHT22;25367;-35.352;149.036;2022-07-15T12:32:08;22.90;35.60
39695;DHT22;25367;-35.352;149.036;2022-07-15T12:34:56;23.00;35.50
39695;DHT22;25367;-35.352;149.036;2022-07-15T12:40:25;22.80;35.70
39695;DHT22;25367;-35.352;149.036;2022-07-15T12:42:55;22.90;35.60
39695;DHT22;25367;-35.352;149.036;2022-07-15T12:45:26;22.90;35.50
39695;DHT22;25367;-35.352;149.036;2022-07-15T12:48:01;22.90;35.50
39695;DHT22;25367;-35.352;149.036;2022-07-15T12:50:33;22.90;35.50
39695;DHT22;25367;-35.352;149.036;2022-07-15T12:53:04;22.90;35.50
39695;DHT22;25367;-35.352;149.036;2022-07-15T12:55:44;22.60;36.30
39695;DHT22;25367;-35.352;149.036;2022-07-15T12:58:15;22.30;36.50
39695;DHT22;25367;-35.352;149.036;2022-07-15T13:00:46;22.10;37.00
39695;DHT22;25367;-35.352;149.036;2022-07-15T13:03:18;22.00;37.50
39695;DHT22;25367;-35.352;149.036;2022-07-15T13:05:50;22.30;37.30
39695;DHT22;25367;-35.352;149.036;2022-07-15T13:08:22;22.50;36.90
39695;DHT22;25367;-35.352;149.036;2022-07-15T13:10:56;22.90;36.60
39695;DHT22;25367;-35.352;149.036;2022-07-15T13:13:28;23.20;35.70
39695;DHT22;25367;-35.352;149.036;2022-07-15T13:15:59;23.50;35.10
39695;DHT22;25367;-35.352;149.036;2022-07-15T13:18:31;23.60;34.50
39695;DHT22;25367;-35.352;149.036;2022-07-15T13:21:04;23.60;34.30
39695;DHT22;25367;-35.352;149.036;2022-07-15T13:23:35;23.50;34.40
39695;DHT22;25367;-35.352;149.036;2022-07-15T13:26:08;23.40;34.20
39695;DHT22;25367;-35.352;149.036;2022-07-15T13:28:39;23.50;34.20
39695;DHT22;25367;-35.352;149.036;2022-07-15T13:31:10;23.40;34.30
39695;DHT22;25367;-35.352;149.036;2022-07-15T13:33:41;23.30;34.30
39695;DHT22;25367;-35.352;149.036;2022-07-15T13:36:11;23.30;34.30
39695;DHT22;25367;-35.352;149.036;2022-07-15T13:38:42;23.20;34.30
39695;DHT22;25367;-35.352;149.036;2022-07-15T13:41:14;23.20;34.30
39695;DHT22;25367;-35.352;149.036;2022-07-15T13:43:45;23.20;34.30
39695;DHT22;25367;-35.352;149.036;2022-07-15T13:46:16;23.20;34.30
39695;DHT22;25367;-35.352;149.036;2022-07-15T13:48:45;23.10;34.40
39695;DHT22;25367;-35.352;149.036;2022-07-15T13:51:15;22.60;35.20
39695;DHT22;25367;-35.352;149.036;2022-07-15T13:53:44;22.30;35.90
39695;DHT22;25367;-35.352;149.036;2022-07-15T13:56:15;22.20;36.40
39695;DHT22;25367;-35.352;149.036;2022-07-15T13:58:45;22.30;36.60
39695;DHT22;25367;-35.352;149.036;2022-07-15T14:01:15;22.80;36.10
39695;DHT22;25367;-35.352;149.036;2022-07-15T14:03:44;23.20;35.50
39695;DHT22;25367;-35.352;149.036;2022-07-15T14:06:14;23.50;35.00
39695;DHT22;25367;-35.352;149.036;2022-07-15T14:08:43;23.50;34.60
39695;DHT22;25367;-35.352;149.036;2022-07-15T14:11:14;23.50;34.50
39695;DHT22;25367;-35.352;149.036;2022-07-15T14:13:44;23.50;34.40
39695;DHT22;25367;-35.352;149.036;2022-07-15T14:16:13;23.50;34.60
39695;DHT22;25367;-35.352;149.036;2022-07-15T14:18:42;23.50;34.20
39695;DHT22;25367;-35.352;149.036;2022-07-15T14:21:12;23.30;34.20
39695;DHT22;25367;-35.352;149.036;2022-07-15T14:23:42;23.30;34.20
39695;DHT22;25367;-35.352;149.036;2022-07-15T14:26:12;23.30;34.30
39695;DHT22;25367;-35.352;149.036;2022-07-15T14:28:43;23.20;34.30
39695;DHT22;25367;-35.352;149.036;2022-07-15T14:31:13;23.10;34.40
39695;DHT22;25367;-35.352;149.036;2022-07-15T14:33:43;23.00;34.50
39695;DHT22;25367;-35.352;149.036;2022-07-15T14:36:13;23.00;34.60
39695;DHT22;25367;-35.352;149.036;2022-07-15T14:38:42;23.00;34.50
39695;DHT22;25367;-35.352;149.036;2022-07-15T14:41:11;22.90;34.60
39695;DHT22;25367;-35.352;149.036;2022-07-15T14:43:43;22.90;34.70
39695;DHT22;25367;-35.352;149.036;2022-07-15T14:46:12;22.90;34.60
39695;DHT22;25367;-35.352;149.036;2022-07-15T14:48:42;22.80;34.90
39695;DHT22;25367;-35.352;149.036;2022-07-15T14:51:11;22.90;34.80
39695;DHT22;25367;-35.352;149.036;2022-07-15T14:53:41;22.90;34.80
39695;DHT22;25367;-35.352;149.036;2022-07-15T14:56:10;22.80;34.90
39695;DHT22;25367;-35.352;149.036;2022-07-15T14:58:42;22.80;35.20
39695;DHT22;25367;-35.352;149.036;2022-07-15T15:01:11;22.70;35.20
39695;DHT22;25367;-35.352;149.036;2022-07-15T15:03:42;22.70;35.40
39695;DHT22;25367;-35.352;149.036;2022-07-15T15:06:12;22.70;36.00
39695;DHT22;25367;-35.352;149.036;2022-07-15T15:08:41;22.70;35.50
39695;DHT22;25367;-35.352;149.036;2022-07-15T15:11:11;22.70;35.60
39695;DHT22;25367;-35.352;149.036;2022-07-15T15:13:42;22.70;35.60
39695;DHT22;25367;-35.352;149.036;2022-07-15T15:16:12;22.70;35.60
39695;DHT22;25367;-35.352;149.036;2022-07-15T15:18:41;22.70;35.60
39695;DHT22;25367;-35.352;149.036;2022-07-15T15:21:10;22.70;35.70
39695;DHT22;25367;-35.352;149.036;2022-07-15T15:23:40;22.70;35.80
39695;DHT22;25367;-35.352;149.036;2022-07-15T15:26:09;22.70;35.80
39695;DHT22;25367;-35.352;149.036;2022-07-15T15:28:39;22.60;35.90